createdAt,value
2018-11-12T00:01:22.819Z,13.80
2018-11-12T00:03:51.109Z,13.80
2018-11-12T00:06:19.354Z,13.70
2018-11-12T00:08:47.558Z,13.60
2018-11-12T00:11:15.925Z,13.50
2018-11-12T00:13:44.087Z,13.50
2018-11-12T00:16:12.286Z,13.30
2018-11-12T00:18:40.603Z,13.40
2018-11-12T00:21:08.816Z,13.30
2018-11-12T00:23:37.026Z,13.30
2018-11-12T00:26:05.842Z,13.30
2018-11-12T00:28:34.084Z,13.30
2018-11-12T00:31:02.278Z,13.20
2018-11-12T00:33:30.566Z,13.20
2018-11-12T00:35:58.774Z,13.10
2018-11-12T00:38:26.984Z,13.10
2018-11-12T00:40:55.242Z,13.10
2018-11-12T00:43:23.515Z,13.00
2018-11-12T00:45:51.706Z,12.90
2018-11-12T00:48:20.027Z,12.80
2018-11-12T00:50:48.226Z,12.80
2018-11-12T00:53:16.435Z,12.70
2018-11-12T00:55:44.671Z,12.70
2018-11-12T00:58:12.875Z,12.70
2018-11-12T01:00:41.093Z,12.70
2018-11-12T01:03:09.378Z,12.60
2018-11-12T01:05:37.614Z,12.60
2018-11-12T01:08:05.822Z,12.60
2018-11-12T01:10:34.047Z,12.60
2018-11-12T01:13:02.268Z,12.60
2018-11-12T01:15:30.491Z,12.80
2018-11-12T01:17:58.698Z,12.90
2018-11-12T01:20:26.902Z,12.90
2018-11-12T01:22:55.110Z,13.10
2018-11-12T01:25:23.329Z,13.30
2018-11-12T01:27:51.545Z,13.40
2018-11-12T01:30:19.846Z,13.30
2018-11-12T01:32:48.350Z,13.30
2018-11-12T01:35:17.591Z,13.30
2018-11-12T01:37:45.871Z,13.40
2018-11-12T01:40:14.927Z,13.40
2018-11-12T01:42:43.457Z,13.40
2018-11-12T01:45:13.852Z,13.40
2018-11-12T01:47:42.971Z,13.40
2018-11-12T01:50:12.112Z,13.50
2018-11-12T01:52:40.803Z,13.50
2018-11-12T01:55:10.203Z,13.50
2018-11-12T01:57:38.423Z,13.50
2018-11-12T02:00:09.427Z,13.50
2018-11-12T02:02:37.653Z,13.60
2018-11-12T02:05:06.586Z,13.60
2018-11-12T02:07:34.792Z,13.80
2018-11-12T02:10:03.171Z,13.70
2018-11-12T02:12:31.374Z,13.70
2018-11-12T02:14:59.574Z,13.70
2018-11-12T02:17:28.128Z,13.70
2018-11-12T02:19:56.342Z,13.70
2018-11-12T02:22:24.575Z,13.60
2018-11-12T02:24:52.767Z,13.50
2018-11-12T02:27:20.965Z,13.40
2018-11-12T02:29:49.185Z,13.40
2018-11-12T02:32:17.518Z,13.30
2018-11-12T02:34:45.736Z,13.30
2018-11-12T02:37:13.939Z,13.20
2018-11-12T02:39:42.183Z,13.10
2018-11-12T02:42:10.390Z,13.10
2018-11-12T02:44:38.594Z,13.10
2018-11-12T02:47:06.841Z,13.00
2018-11-12T02:49:35.042Z,12.90
2018-11-12T02:52:03.277Z,12.90
2018-11-12T02:54:31.526Z,12.80
2018-11-12T02:56:59.723Z,12.70
2018-11-12T02:59:27.944Z,12.70
2018-11-12T03:01:56.162Z,12.70
2018-11-12T03:04:24.359Z,12.70
2018-11-12T03:06:52.565Z,12.60
2018-11-12T03:09:20.863Z,12.60
2018-11-12T03:11:49.074Z,12.70
2018-11-12T03:14:17.271Z,12.70
2018-11-12T03:16:45.531Z,12.70
2018-11-12T03:19:13.739Z,12.70
2018-11-12T03:21:41.944Z,12.60
2018-11-12T03:24:10.157Z,12.70
2018-11-12T03:26:38.374Z,12.70
2018-11-12T03:29:06.571Z,12.70
2018-11-12T03:31:34.779Z,12.70
2018-11-12T03:34:02.974Z,12.80
2018-11-12T03:36:31.187Z,12.80
2018-11-12T03:38:59.470Z,12.80
2018-11-12T03:41:27.665Z,12.80
2018-11-12T03:43:55.863Z,13.00
2018-11-12T03:46:24.090Z,12.90
2018-11-12T03:48:52.312Z,13.00
2018-11-12T03:51:20.515Z,13.00
2018-11-12T03:53:48.747Z,13.00
2018-11-12T03:56:16.944Z,13.00
2018-11-12T03:58:45.147Z,13.00
2018-11-12T04:01:13.367Z,13.10
2018-11-12T04:03:41.582Z,13.50
2018-11-12T04:06:09.782Z,13.40
2018-11-12T04:08:38.406Z,13.40
2018-11-12T04:11:06.636Z,13.40
2018-11-12T04:13:34.830Z,13.40
2018-11-12T04:16:03.071Z,13.40
2018-11-12T04:18:31.262Z,13.40
2018-11-12T04:20:59.462Z,13.40
2018-11-12T04:23:27.682Z,13.40
2018-11-12T04:25:55.886Z,13.40
2018-11-12T04:28:24.087Z,13.40
2018-11-12T04:30:52.299Z,13.40
2018-11-12T04:33:20.539Z,13.40
2018-11-12T04:35:48.747Z,13.30
2018-11-12T04:38:17.306Z,13.30
2018-11-12T04:40:45.506Z,13.30
2018-11-12T04:43:13.706Z,13.30
2018-11-12T04:45:41.947Z,13.30
2018-11-12T04:48:16.359Z,13.30
2018-11-12T04:50:45.487Z,13.30
2018-11-12T04:53:14.650Z,13.30
2018-11-12T04:55:43.195Z,13.30
2018-11-12T04:58:11.492Z,13.20
2018-11-12T05:00:39.693Z,13.20
2018-11-12T05:03:07.895Z,13.20
2018-11-12T05:05:36.143Z,13.20
2018-11-12T05:08:04.343Z,13.10
2018-11-12T05:10:32.578Z,13.10
2018-11-12T05:13:00.796Z,13.00
2018-11-12T05:15:28.990Z,13.00
2018-11-12T05:17:57.186Z,12.90
2018-11-12T05:20:26.859Z,12.80
2018-11-12T05:22:55.062Z,12.80
2018-11-12T05:25:23.397Z,12.60
2018-11-12T05:27:51.606Z,12.70
2018-11-12T05:30:21.283Z,12.60
2018-11-12T05:32:49.486Z,12.50
2018-11-12T05:35:19.806Z,12.60
2018-11-12T05:37:48.094Z,12.40
2018-11-12T05:40:17.650Z,12.30
2018-11-12T05:42:45.947Z,12.20
2018-11-12T05:45:15.232Z,12.20
2018-11-12T05:47:43.559Z,12.10
2018-11-12T05:50:14.981Z,12.10
2018-11-12T05:52:44.558Z,12.00
2018-11-12T05:55:14.068Z,11.90
2018-11-12T05:57:42.956Z,11.90
2018-11-12T06:00:12.346Z,11.80
2018-11-12T06:02:40.866Z,11.80
2018-11-12T06:05:10.785Z,11.70
2018-11-12T06:07:38.981Z,11.60
2018-11-12T06:10:10.578Z,11.50
2018-11-12T06:12:38.904Z,11.40
2018-11-12T06:15:08.453Z,11.40
2018-11-12T06:17:36.663Z,11.40
2018-11-12T06:20:08.974Z,11.30
2018-11-12T06:22:37.229Z,11.30
2018-11-12T06:25:06.349Z,11.20
2018-11-12T06:27:34.647Z,11.20
2018-11-12T06:30:02.871Z,11.30
2018-11-12T06:32:31.070Z,11.10
2018-11-12T06:34:59.289Z,11.00
2018-11-12T06:37:27.486Z,10.90
2018-11-12T06:39:55.686Z,10.90
2018-11-12T06:42:24.060Z,10.90
2018-11-12T06:44:52.238Z,10.90
2018-11-12T06:47:20.746Z,10.80
2018-11-12T06:49:48.990Z,10.70
2018-11-12T06:52:17.195Z,10.70
2018-11-12T06:54:45.418Z,10.80
2018-11-12T06:57:13.622Z,10.80
2018-11-12T06:59:41.826Z,10.80
2018-11-12T07:02:10.030Z,10.70
2018-11-12T07:04:38.289Z,10.70
2018-11-12T07:07:06.848Z,10.70
2018-11-12T07:09:34.938Z,10.70
2018-11-12T07:12:03.316Z,10.60
2018-11-12T07:14:31.537Z,10.70
2018-11-12T07:16:59.718Z,10.70
2018-11-12T07:19:27.931Z,10.70
2018-11-12T07:21:56.135Z,10.70
2018-11-12T07:24:24.326Z,10.80
2018-11-12T07:26:53.159Z,10.90
2018-11-12T07:29:21.378Z,11.00
2018-11-12T07:31:49.579Z,10.90
2018-11-12T07:34:17.835Z,11.00
2018-11-12T07:36:46.031Z,11.10
2018-11-12T07:39:14.482Z,11.20
2018-11-12T07:41:42.718Z,11.20
2018-11-12T07:44:10.910Z,11.30
2018-11-12T07:46:39.114Z,11.60
2018-11-12T07:49:07.339Z,12.10
2018-11-12T07:51:35.539Z,12.90
2018-11-12T07:54:03.762Z,13.70
2018-11-12T07:56:32.076Z,14.20
2018-11-12T07:59:00.247Z,14.80
2018-11-12T08:01:28.459Z,15.70
2018-11-12T08:03:56.685Z,16.30
2018-11-12T08:06:24.877Z,16.70
2018-11-12T08:08:53.125Z,17.20
2018-11-12T08:11:21.319Z,17.30
2018-11-12T08:13:49.563Z,17.60
2018-11-12T08:16:17.759Z,17.90
2018-11-12T08:18:46.061Z,18.00
2018-11-12T08:21:14.266Z,17.80
2018-11-12T08:23:42.470Z,17.60
2018-11-12T08:26:10.754Z,17.60
2018-11-12T08:28:38.974Z,17.40
2018-11-12T08:31:07.190Z,17.30
2018-11-12T08:33:35.490Z,17.00
2018-11-12T08:36:03.732Z,16.60
2018-11-12T08:38:31.880Z,16.70
2018-11-12T08:41:00.501Z,16.60
2018-11-12T08:43:28.706Z,16.50
2018-11-12T08:45:56.962Z,16.60
2018-11-12T08:48:25.277Z,16.60
2018-11-12T08:50:53.434Z,16.60
2018-11-12T08:53:21.647Z,16.30
2018-11-12T08:55:49.855Z,16.20
2018-11-12T08:58:18.835Z,16.30
2018-11-12T09:00:46.289Z,16.20
2018-11-12T09:03:14.511Z,16.00
2018-11-12T09:05:42.769Z,15.90
2018-11-12T09:08:10.917Z,15.90
2018-11-12T09:10:39.405Z,15.90
2018-11-12T09:13:07.638Z,15.90
2018-11-12T09:15:35.898Z,15.90
2018-11-12T09:18:04.105Z,15.80
2018-11-12T09:20:32.308Z,15.80
2018-11-12T09:23:00.654Z,15.80
2018-11-12T09:25:29.274Z,15.80
2018-11-12T09:27:57.553Z,15.60
2018-11-12T09:30:26.955Z,15.70
2018-11-12T09:32:55.216Z,15.80
2018-11-12T09:35:24.829Z,15.70
2018-11-12T09:37:53.824Z,15.70
2018-11-12T09:40:28.267Z,15.80
2018-11-12T09:42:56.568Z,15.90
2018-11-12T09:45:24.724Z,15.80
2018-11-12T09:47:53.084Z,15.80
2018-11-12T09:50:22.469Z,15.80
2018-11-12T09:52:51.865Z,15.90
2018-11-12T09:55:20.883Z,15.90
2018-11-12T09:57:50.570Z,15.90
2018-11-12T10:00:19.912Z,15.90
2018-11-12T10:02:49.634Z,15.90
2018-11-12T10:05:18.710Z,15.90
2018-11-12T10:07:49.777Z,16.00
2018-11-12T10:10:31.350Z,16.00
2018-11-12T10:12:58.428Z,15.90
2018-11-12T10:15:27.880Z,15.90
2018-11-12T10:17:55.822Z,15.90
2018-11-12T10:20:21.689Z,16.00
2018-11-12T10:22:49.943Z,16.00
2018-11-12T10:25:19.128Z,16.00
2018-11-12T10:27:47.418Z,16.10
2018-11-12T10:30:15.639Z,15.90
2018-11-12T10:32:43.883Z,15.90
2018-11-12T10:35:12.106Z,16.00
2018-11-12T10:37:41.651Z,16.10
2018-11-12T10:40:18.779Z,16.20
2018-11-12T10:42:47.058Z,16.20
2018-11-12T10:45:15.551Z,16.20
2018-11-12T10:47:44.512Z,16.20
2018-11-12T10:50:13.132Z,16.20
2018-11-12T10:52:41.452Z,16.20
2018-11-12T10:55:11.863Z,16.30
2018-11-12T10:57:40.420Z,16.20
2018-11-12T11:00:22.861Z,16.20
2018-11-12T11:02:56.634Z,16.20
2018-11-12T11:05:24.950Z,16.20
2018-11-12T11:07:54.311Z,16.20
2018-11-12T11:10:23.910Z,16.30
2018-11-12T11:12:52.499Z,16.30
2018-11-12T11:15:20.776Z,16.30
2018-11-12T11:17:49.378Z,16.30
2018-11-12T11:20:17.630Z,16.30
2018-11-12T11:22:45.862Z,16.20
2018-11-12T11:25:14.123Z,16.20
2018-11-12T11:27:42.377Z,16.20
2018-11-12T11:30:13.619Z,16.30
2018-11-12T11:32:42.094Z,16.40
2018-11-12T11:35:10.975Z,16.40
2018-11-12T11:37:39.224Z,16.50
2018-11-12T11:40:13.173Z,16.50
2018-11-12T11:42:41.958Z,16.50
2018-11-12T11:45:11.346Z,16.50
2018-11-12T11:47:40.421Z,16.60
2018-11-12T11:50:11.045Z,16.60
2018-11-12T11:52:39.174Z,16.60
2018-11-12T11:55:09.302Z,16.60
2018-11-12T11:57:37.764Z,16.50
2018-11-12T12:00:15.184Z,16.50
2018-11-12T12:02:44.303Z,16.50
2018-11-12T12:05:13.519Z,16.50
2018-11-12T12:07:41.874Z,16.60
2018-11-12T12:10:10.882Z,16.60
2018-11-12T12:12:39.175Z,16.70
2018-11-12T12:15:09.520Z,16.70
2018-11-12T12:17:37.930Z,16.80
2018-11-12T12:20:08.047Z,16.80
2018-11-12T12:22:36.279Z,16.90
2018-11-12T12:25:05.709Z,17.00
2018-11-12T12:27:33.934Z,17.00
2018-11-12T12:30:02.227Z,17.20
2018-11-12T12:32:30.426Z,17.20
2018-11-12T12:34:58.659Z,17.20
2018-11-12T12:37:26.862Z,17.30
2018-11-12T12:39:55.069Z,17.30
2018-11-12T12:42:23.265Z,17.40
2018-11-12T12:44:51.482Z,17.40
2018-11-12T12:47:19.663Z,17.50
2018-11-12T12:49:47.903Z,17.50
2018-11-12T12:52:16.126Z,17.50
2018-11-12T12:54:44.322Z,17.60
2018-11-12T12:57:12.537Z,17.70
2018-11-12T12:59:41.035Z,17.70
2018-11-12T13:02:09.255Z,17.70
2018-11-12T13:04:37.493Z,17.70
2018-11-12T13:07:05.702Z,17.70
2018-11-12T13:09:33.965Z,17.70
2018-11-12T13:12:02.146Z,17.70
2018-11-12T13:14:30.449Z,17.70
2018-11-12T13:16:58.582Z,17.70
2018-11-12T13:19:26.788Z,17.70
2018-11-12T13:21:54.986Z,17.80
2018-11-12T13:24:23.182Z,17.80
2018-11-12T13:26:51.375Z,17.70
2018-11-12T13:29:19.615Z,17.70
2018-11-12T13:31:47.906Z,17.80
2018-11-12T13:34:16.746Z,18.10
2018-11-12T13:36:45.051Z,18.10
2018-11-12T13:39:13.768Z,18.00
2018-11-12T13:41:42.008Z,18.10
2018-11-12T13:44:10.292Z,18.10
2018-11-12T13:46:44.015Z,18.10
2018-11-12T13:49:12.223Z,18.10
2018-11-12T13:51:40.427Z,18.20
2018-11-12T13:54:09.183Z,18.20
2018-11-12T13:56:37.462Z,18.20
2018-11-12T13:59:05.787Z,18.20
2018-11-12T14:01:33.996Z,18.30
2018-11-12T14:04:02.211Z,18.30
2018-11-12T14:06:30.456Z,18.40
2018-11-12T14:08:58.637Z,18.40
2018-11-12T14:11:27.210Z,18.40
2018-11-12T14:13:55.944Z,18.40
2018-11-12T14:16:24.136Z,18.70
2018-11-12T14:18:52.347Z,18.70
2018-11-12T14:21:20.636Z,18.70
2018-11-12T14:23:48.751Z,18.70
2018-11-12T14:26:17.092Z,18.80
2018-11-12T14:28:45.494Z,18.70
2018-11-12T14:31:13.515Z,19.00
2018-11-12T14:33:41.837Z,18.90
2018-11-12T14:36:10.093Z,18.80
2018-11-12T14:38:38.259Z,18.80
2018-11-12T14:41:06.574Z,18.80
2018-11-12T14:43:34.776Z,18.80
2018-11-12T14:46:03.266Z,18.80
2018-11-12T14:48:31.746Z,18.80
2018-11-12T14:51:00.098Z,18.90
2018-11-12T14:53:28.250Z,19.10
2018-11-12T14:55:56.559Z,19.10
2018-11-12T14:58:24.787Z,19.10
2018-11-12T15:00:53.002Z,19.00
2018-11-12T15:03:22.937Z,19.00
2018-11-12T15:05:51.143Z,19.00
2018-11-12T15:08:19.376Z,19.00
2018-11-12T15:10:47.601Z,18.90
2018-11-12T15:13:15.793Z,18.80
2018-11-12T15:15:43.985Z,18.70
2018-11-12T15:18:12.220Z,18.80
2018-11-12T15:20:40.415Z,18.80
2018-11-12T15:23:08.730Z,18.70
2018-11-12T15:25:36.949Z,18.60
2018-11-12T15:28:05.227Z,18.60
2018-11-12T15:30:33.430Z,18.50
2018-11-12T15:33:01.721Z,18.50
2018-11-12T15:35:29.916Z,18.30
2018-11-12T15:37:58.119Z,18.30
2018-11-12T15:40:26.371Z,18.20
2018-11-12T15:42:54.551Z,18.10
2018-11-12T15:45:24.482Z,18.10
2018-11-12T15:47:52.779Z,18.00
2018-11-12T15:50:27.686Z,18.10
2018-11-12T15:52:55.887Z,18.10
2018-11-12T15:55:24.088Z,18.00
2018-11-12T15:57:52.439Z,18.00
2018-11-12T16:00:20.955Z,18.00
2018-11-12T16:02:49.159Z,17.90
2018-11-12T16:05:17.862Z,17.80
2018-11-12T16:07:46.363Z,17.80
2018-11-12T16:10:16.897Z,17.70
2018-11-12T16:12:45.156Z,17.60
2018-11-12T16:15:14.756Z,17.60
2018-11-12T16:17:42.999Z,17.50
2018-11-12T16:20:17.022Z,17.60
2018-11-12T16:22:49.523Z,17.50
2018-11-12T16:25:18.444Z,17.40
2018-11-12T16:27:46.610Z,17.30
2018-11-12T16:30:14.994Z,17.30
2018-11-12T16:32:43.978Z,17.30
2018-11-12T16:35:14.153Z,17.30
2018-11-12T16:37:43.055Z,17.30
2018-11-12T16:40:11.359Z,17.30
2018-11-12T16:42:40.622Z,17.20
2018-11-12T16:45:08.854Z,17.10
2018-11-12T16:47:37.067Z,16.90
2018-11-12T16:50:06.582Z,16.80
2018-11-12T16:52:34.866Z,16.60
2018-11-12T16:55:03.438Z,16.50
2018-11-12T16:57:31.639Z,16.40
2018-11-12T16:59:59.922Z,16.40
2018-11-12T17:02:28.139Z,16.30
2018-11-12T17:04:56.391Z,16.20
2018-11-12T17:07:24.700Z,16.10
2018-11-12T17:09:53.577Z,16.10
2018-11-12T17:12:21.841Z,15.90
2018-11-12T17:14:49.974Z,15.80
2018-11-12T17:17:18.222Z,15.70
2018-11-12T17:19:46.373Z,15.70
2018-11-12T17:22:14.592Z,15.60
2018-11-12T17:24:42.891Z,15.60
2018-11-12T17:27:11.107Z,15.50
2018-11-12T17:29:39.322Z,15.50
2018-11-12T17:32:07.551Z,15.40
2018-11-12T17:34:35.750Z,15.30
2018-11-12T17:37:03.971Z,15.20
2018-11-12T17:39:32.221Z,15.10
2018-11-12T17:42:00.412Z,15.10
2018-11-12T17:44:28.661Z,15.00
2018-11-12T17:46:56.890Z,14.90
2018-11-12T17:49:25.090Z,14.80
2018-11-12T17:51:53.287Z,14.70
2018-11-12T17:54:21.567Z,14.70
2018-11-12T17:56:49.715Z,14.70
2018-11-12T17:59:18.038Z,14.50
2018-11-12T18:01:46.259Z,14.50
2018-11-12T18:04:14.628Z,14.50
2018-11-12T18:06:42.827Z,14.40
2018-11-12T18:09:11.930Z,14.30
2018-11-12T18:11:40.145Z,14.40
2018-11-12T18:14:09.986Z,14.20
2018-11-12T18:16:38.298Z,14.20
2018-11-12T18:19:07.056Z,14.10
2018-11-12T18:21:35.274Z,14.10
2018-11-12T18:24:03.703Z,14.10
2018-11-12T18:26:31.923Z,14.00
2018-11-12T18:29:00.150Z,13.90
2018-11-12T18:31:28.562Z,13.80
2018-11-12T18:33:56.664Z,13.70
2018-11-12T18:36:24.862Z,13.70
2018-11-12T18:38:53.168Z,13.60
2018-11-12T18:41:21.391Z,13.50
2018-11-12T18:43:49.667Z,13.60
2018-11-12T18:46:17.886Z,13.60
2018-11-12T18:48:46.174Z,13.50
2018-11-12T18:51:14.390Z,13.30
2018-11-12T18:53:42.606Z,13.30
2018-11-12T18:56:10.814Z,13.30
2018-11-12T18:58:39.034Z,13.20
2018-11-12T19:01:07.462Z,13.20
2018-11-12T19:03:35.774Z,13.10
2018-11-12T19:06:03.990Z,13.10
2018-11-12T19:08:32.207Z,13.10
2018-11-12T19:11:00.472Z,13.00
2018-11-12T19:13:28.610Z,13.00
2018-11-12T19:15:56.851Z,12.90
2018-11-12T19:18:25.058Z,12.70
2018-11-12T19:20:53.264Z,12.70
2018-11-12T19:23:21.490Z,12.80
2018-11-12T19:25:49.689Z,12.80
2018-11-12T19:28:17.890Z,12.70
2018-11-12T19:30:46.123Z,12.60
2018-11-12T19:33:14.375Z,12.60
2018-11-12T19:35:42.631Z,12.50
2018-11-12T19:38:10.845Z,12.40
2018-11-12T19:40:39.102Z,12.40
2018-11-12T19:43:07.256Z,12.40
2018-11-12T19:45:35.505Z,12.40
2018-11-12T19:48:03.734Z,12.40
2018-11-12T19:50:31.948Z,12.30
2018-11-12T19:53:00.851Z,12.20
2018-11-12T19:55:29.067Z,12.30
2018-11-12T19:57:57.287Z,12.20
2018-11-12T20:00:27.701Z,12.20
2018-11-12T20:02:56.883Z,12.10
2018-11-12T20:05:25.079Z,12.10
2018-11-12T20:07:53.600Z,12.10
2018-11-12T20:10:22.634Z,12.10
2018-11-12T20:12:50.873Z,12.10
2018-11-12T20:15:20.501Z,12.10
2018-11-12T20:17:50.527Z,12.10
2018-11-12T20:20:21.199Z,12.10
2018-11-12T20:22:49.850Z,12.10
2018-11-12T20:25:18.844Z,12.10
2018-11-12T20:27:47.636Z,12.10
2018-11-12T20:30:18.766Z,12.10
2018-11-12T20:32:47.258Z,12.10
2018-11-12T20:35:15.493Z,12.20
2018-11-12T20:37:43.691Z,12.10
2018-11-12T20:40:14.395Z,12.10
2018-11-12T20:42:43.442Z,12.10
2018-11-12T20:45:13.197Z,12.20
2018-11-12T20:47:42.039Z,12.10
2018-11-12T20:50:11.327Z,12.20
2018-11-12T20:52:39.654Z,12.20
2018-11-12T20:55:09.205Z,12.20
2018-11-12T20:57:38.060Z,12.20
2018-11-12T21:00:10.071Z,12.30
2018-11-12T21:02:38.691Z,12.30
2018-11-12T21:05:07.961Z,12.40
2018-11-12T21:07:36.379Z,12.40
2018-11-12T21:10:04.571Z,12.50
2018-11-12T21:12:32.773Z,12.50
2018-11-12T21:15:01.151Z,12.50
2018-11-12T21:17:29.354Z,12.60
2018-11-12T21:19:57.582Z,12.60
2018-11-12T21:22:25.828Z,12.60
2018-11-12T21:24:54.054Z,12.70
2018-11-12T21:27:22.284Z,12.70
2018-11-12T21:29:50.529Z,12.70
2018-11-12T21:32:18.744Z,12.70
2018-11-12T21:34:46.993Z,12.70
2018-11-12T21:37:15.656Z,12.80
2018-11-12T21:39:43.809Z,12.80
2018-11-12T21:42:12.044Z,12.80
2018-11-12T21:44:40.367Z,12.80
2018-11-12T21:47:08.640Z,12.90
2018-11-12T21:49:36.875Z,12.90
2018-11-12T21:52:05.294Z,12.90
2018-11-12T21:54:33.522Z,13.00
2018-11-12T21:57:01.746Z,13.00
2018-11-12T21:59:29.975Z,13.00
2018-11-12T22:01:58.209Z,13.10
2018-11-12T22:04:26.440Z,13.10
2018-11-12T22:06:54.784Z,13.10
2018-11-12T22:09:22.987Z,13.10
2018-11-12T22:11:51.207Z,13.10
2018-11-12T22:14:19.470Z,13.20
2018-11-12T22:16:47.698Z,13.20
2018-11-12T22:19:15.994Z,13.20
2018-11-12T22:21:44.249Z,13.20
2018-11-12T22:24:12.455Z,13.30
2018-11-12T22:26:40.651Z,13.30
2018-11-12T22:29:08.947Z,13.40
2018-11-12T22:31:37.163Z,13.30
2018-11-12T22:34:05.470Z,13.30
2018-11-12T22:36:33.722Z,13.30
2018-11-12T22:39:01.951Z,13.30
2018-11-12T22:41:30.150Z,13.40
2018-11-12T22:43:58.421Z,13.40
2018-11-12T22:46:26.617Z,13.40
2018-11-12T22:48:54.841Z,13.40
2018-11-12T22:51:23.074Z,13.50
2018-11-12T22:53:51.296Z,13.40
2018-11-12T22:56:19.475Z,13.40
2018-11-12T22:58:47.694Z,13.50
2018-11-12T23:01:15.906Z,13.50
2018-11-12T23:03:44.109Z,13.50
2018-11-12T23:06:13.091Z,13.50
2018-11-12T23:08:42.096Z,13.50
2018-11-12T23:11:10.301Z,13.50
2018-11-12T23:13:38.775Z,13.50
2018-11-12T23:16:07.033Z,13.50
2018-11-12T23:18:35.259Z,13.50
2018-11-12T23:21:03.834Z,13.60
2018-11-12T23:23:32.042Z,13.50
2018-11-12T23:26:00.252Z,13.60
2018-11-12T23:28:28.519Z,13.60
2018-11-12T23:30:56.719Z,13.60
2018-11-12T23:33:24.931Z,13.60
2018-11-12T23:35:53.171Z,13.60
2018-11-12T23:38:21.373Z,13.60
2018-11-12T23:40:49.594Z,13.60
2018-11-12T23:43:17.914Z,13.60
2018-11-12T23:45:46.121Z,13.60
2018-11-12T23:48:14.330Z,13.60
2018-11-12T23:50:42.566Z,13.60
2018-11-12T23:53:10.787Z,13.50
2018-11-12T23:55:39.006Z,13.60
2018-11-12T23:58:07.266Z,13.50
